createdAt,value
2023-03-28T00:01:47.991Z,95345.00
2023-03-28T00:05:48.210Z,95335.00
2023-03-28T00:09:48.370Z,95323.00
2023-03-28T00:13:48.536Z,95318.00
2023-03-28T00:17:48.714Z,95302.00
2023-03-28T00:21:48.878Z,95306.00
2023-03-28T00:25:49.064Z,95321.00
2023-03-28T00:29:49.206Z,95337.00
2023-03-28T00:33:49.453Z,95345.00
2023-03-28T00:37:49.609Z,95325.00
2023-03-28T00:41:50.009Z,95325.00
2023-03-28T00:45:59.153Z,95314.00
2023-03-28T00:49:50.985Z,95318.00
2023-03-28T00:53:49.967Z,95329.00
2023-03-28T00:57:50.015Z,95337.00
2023-03-28T01:01:50.293Z,95343.00
2023-03-28T01:05:50.513Z,95343.00
2023-03-28T01:09:50.354Z,95345.00
2023-03-28T01:13:50.379Z,95341.00
2023-03-28T01:17:50.357Z,95331.00
2023-03-28T01:21:50.276Z,95339.00
2023-03-28T01:25:50.242Z,95343.00
2023-03-28T01:29:50.215Z,95351.00
2023-03-28T01:33:50.167Z,95359.00
2023-03-28T01:37:50.137Z,95361.00
2023-03-28T01:41:50.097Z,95365.00
2023-03-28T01:45:50.156Z,95361.00
2023-03-28T01:49:50.142Z,95370.00
2023-03-28T01:53:50.107Z,95370.00
2023-03-28T01:57:50.096Z,95359.00
2023-03-28T02:01:50.022Z,95365.00
2023-03-28T02:05:49.957Z,95353.00
2023-03-28T02:09:50.036Z,95363.00
2023-03-28T02:13:49.923Z,95367.00
2023-03-28T02:17:49.895Z,95368.00
2023-03-28T02:21:49.856Z,95367.00
2023-03-28T02:25:50.067Z,95376.00
2023-03-28T02:29:49.925Z,95372.00
2023-03-28T02:33:49.923Z,95368.00
2023-03-28T02:37:49.938Z,95372.00
2023-03-28T02:41:49.980Z,95374.00
2023-03-28T02:45:49.850Z,95372.00
2023-03-28T02:49:50.962Z,95380.00
2023-03-28T02:53:49.731Z,95380.00
2023-03-28T02:57:49.768Z,95382.00
2023-03-28T03:01:49.675Z,95382.00
2023-03-28T03:05:49.670Z,95402.00
2023-03-28T03:09:49.852Z,95400.00
2023-03-28T03:13:50.077Z,95404.00
2023-03-28T03:17:50.261Z,95408.00
2023-03-28T03:21:50.334Z,95412.00
2023-03-28T03:25:50.523Z,95412.00
2023-03-28T03:29:50.520Z,95414.00
2023-03-28T03:33:50.644Z,95414.00
2023-03-28T03:37:50.800Z,95414.00
2023-03-28T03:41:50.911Z,95418.00
2023-03-28T03:45:51.072Z,95420.00
2023-03-28T03:49:51.073Z,95421.00
2023-03-28T03:53:51.055Z,95427.00
2023-03-28T03:57:51.719Z,95427.00
2023-03-28T04:01:51.209Z,95427.00
2023-03-28T04:05:51.245Z,95435.00
2023-03-28T04:09:51.200Z,95437.00
2023-03-28T04:13:51.288Z,95435.00
2023-03-28T04:17:51.581Z,95435.00
2023-03-28T04:21:51.247Z,95433.00
2023-03-28T04:25:51.375Z,95439.00
2023-03-28T04:29:52.121Z,95439.00
2023-03-28T04:33:51.457Z,95441.00
2023-03-28T04:37:51.374Z,95447.00
2023-03-28T04:41:51.323Z,95453.00
2023-03-28T04:45:51.424Z,95459.00
2023-03-28T04:49:51.333Z,95459.00
2023-03-28T04:53:51.320Z,95457.00
2023-03-28T04:57:51.349Z,95461.00
2023-03-28T05:01:51.484Z,95461.00
2023-03-28T05:05:51.340Z,95465.00
2023-03-28T05:09:51.377Z,95471.00
2023-03-28T05:13:51.453Z,95469.00
2023-03-28T05:17:51.473Z,95476.00
2023-03-28T05:21:51.442Z,95478.00
2023-03-28T05:25:51.474Z,95480.00
2023-03-28T05:29:51.610Z,95492.00
2023-03-28T05:33:51.547Z,95482.00
2023-03-28T05:37:51.547Z,95492.00
2023-03-28T05:41:51.569Z,95498.00
2023-03-28T05:45:51.743Z,95502.00
2023-03-28T05:49:53.764Z,95512.00
2023-03-28T05:53:51.685Z,95520.00
2023-03-28T05:57:51.597Z,95525.00
2023-03-28T06:01:51.569Z,95525.00
2023-03-28T06:05:51.526Z,95535.00
2023-03-28T06:09:51.669Z,95539.00
2023-03-28T06:13:51.516Z,95543.00
2023-03-28T06:17:51.520Z,95555.00
2023-03-28T06:21:51.442Z,95553.00
2023-03-28T06:25:51.385Z,95561.00
2023-03-28T06:29:51.335Z,95567.00
2023-03-28T06:33:51.263Z,95570.00
2023-03-28T06:37:51.249Z,95574.00
2023-03-28T06:41:51.286Z,95572.00
2023-03-28T06:45:51.383Z,95580.00
2023-03-28T06:49:51.370Z,95592.00
2023-03-28T06:53:51.340Z,95588.00
2023-03-28T06:57:51.318Z,95590.00
2023-03-28T07:01:51.329Z,95598.00
2023-03-28T07:05:51.214Z,95602.00
2023-03-28T07:09:51.180Z,95608.00
2023-03-28T07:13:51.174Z,95614.00
2023-03-28T07:17:51.182Z,95625.00
2023-03-28T07:21:51.147Z,95633.00
2023-03-28T07:25:51.047Z,95639.00
2023-03-28T07:29:51.184Z,95637.00
2023-03-28T07:33:51.161Z,95653.00
2023-03-28T07:37:50.967Z,95651.00
2023-03-28T07:41:50.947Z,95667.00
2023-03-28T07:45:51.143Z,95673.00
2023-03-28T07:49:51.396Z,95671.00
2023-03-28T07:53:51.314Z,95665.00
2023-03-28T07:57:51.269Z,95675.00
2023-03-28T08:01:51.243Z,95673.00
2023-03-28T08:05:51.386Z,95680.00
2023-03-28T08:09:51.192Z,95678.00
2023-03-28T08:13:51.180Z,95680.00
2023-03-28T08:17:51.150Z,95680.00
2023-03-28T08:22:04.179Z,95682.00
2023-03-28T08:26:10.045Z,95678.00
2023-03-28T08:30:09.765Z,95675.00
2023-03-28T08:34:10.053Z,95677.00
2023-03-28T08:38:11.480Z,95680.00
2023-03-28T08:42:14.031Z,95680.00
2023-03-28T08:46:20.591Z,95684.00
2023-03-28T08:50:12.246Z,95688.00
2023-03-28T08:54:09.572Z,95692.00
2023-03-28T08:58:09.547Z,95694.00
2023-03-28T09:02:09.551Z,95696.00
2023-03-28T09:06:09.496Z,95692.00
2023-03-28T09:10:09.480Z,95698.00
2023-03-28T09:14:09.445Z,95700.00
2023-03-28T09:18:09.418Z,95700.00
2023-03-28T09:22:15.502Z,95700.00
2023-03-28T09:26:10.289Z,95698.00
2023-03-28T09:30:09.298Z,95698.00
2023-03-28T09:34:09.576Z,95700.00
2023-03-28T09:38:09.567Z,95700.00
2023-03-28T09:42:22.238Z,95698.00
2023-03-28T09:46:09.626Z,95698.00
2023-03-28T09:50:13.215Z,95704.00
2023-03-28T09:54:09.557Z,95702.00
2023-03-28T09:58:09.514Z,95698.00
2023-03-28T10:02:09.496Z,95688.00
2023-03-28T10:06:09.901Z,95690.00
2023-03-28T10:10:13.614Z,95688.00
2023-03-28T10:14:09.446Z,95684.00
2023-03-28T10:18:09.404Z,95682.00
2023-03-28T10:22:09.557Z,95680.00
2023-03-28T10:26:09.293Z,95678.00
2023-03-28T10:30:09.384Z,95677.00
2023-03-28T10:34:10.268Z,95678.00
2023-03-28T10:38:10.122Z,95682.00
2023-03-28T10:42:11.944Z,95678.00
2023-03-28T10:46:12.362Z,95680.00
2023-03-28T10:50:09.057Z,95675.00
2023-03-28T10:54:09.134Z,95680.00
2023-03-28T10:58:09.159Z,95682.00
2023-03-28T11:02:09.079Z,95677.00
2023-03-28T11:06:10.148Z,95677.00
2023-03-28T11:10:08.943Z,95671.00
2023-03-28T11:14:08.962Z,95671.00
2023-03-28T11:18:08.997Z,95665.00
2023-03-28T11:22:09.133Z,95659.00
2023-03-28T11:26:09.290Z,95651.00
2023-03-28T11:30:09.402Z,95635.00
2023-03-28T11:34:09.243Z,95629.00
2023-03-28T11:38:09.258Z,95624.00
2023-03-28T11:42:09.204Z,95624.00
2023-03-28T11:46:09.222Z,95614.00
2023-03-28T11:50:09.111Z,95608.00
2023-03-28T11:54:09.065Z,95606.00
2023-03-28T11:58:09.076Z,95598.00
2023-03-28T12:02:09.084Z,95596.00
2023-03-28T12:06:10.438Z,95584.00
2023-03-28T12:10:08.976Z,95580.00
2023-03-28T12:14:12.199Z,95580.00
2023-03-28T12:18:08.922Z,95580.00
2023-03-28T12:22:08.810Z,95572.00
2023-03-28T12:26:08.770Z,95570.00
2023-03-28T12:30:08.768Z,95563.00
2023-03-28T12:34:08.792Z,95553.00
2023-03-28T12:38:08.713Z,95551.00
2023-03-28T12:42:08.671Z,95549.00
2023-03-28T12:46:08.760Z,95549.00
2023-03-28T12:50:08.864Z,95543.00
2023-03-28T12:54:08.913Z,95541.00
2023-03-28T12:58:09.056Z,95543.00
2023-03-28T13:02:09.182Z,95541.00
2023-03-28T13:06:09.654Z,95541.00
2023-03-28T13:10:17.388Z,95545.00
2023-03-28T13:14:10.383Z,95539.00
2023-03-28T13:18:16.759Z,95537.00
2023-03-28T13:22:09.656Z,95533.00
2023-03-28T13:26:09.266Z,95533.00
2023-03-28T13:30:09.283Z,95525.00
2023-03-28T13:34:09.233Z,95525.00
2023-03-28T13:38:20.693Z,95518.00
2023-03-28T13:42:27.891Z,95522.00
2023-03-28T13:46:27.863Z,95516.00
2023-03-28T13:50:27.863Z,95508.00
2023-03-28T13:54:27.785Z,95500.00
2023-03-28T13:58:27.775Z,95498.00
2023-03-28T14:02:27.863Z,95490.00
2023-03-28T14:06:27.877Z,95488.00
2023-03-28T14:10:28.090Z,95486.00
2023-03-28T14:14:28.302Z,95484.00
2023-03-28T14:18:28.464Z,95486.00
2023-03-28T14:22:28.780Z,95478.00
2023-03-28T14:26:28.999Z,95474.00
2023-03-28T14:30:29.143Z,95474.00
2023-03-28T14:34:29.272Z,95476.00
2023-03-28T14:38:29.513Z,95471.00
2023-03-28T14:42:29.666Z,95471.00
2023-03-28T14:46:30.728Z,95471.00
2023-03-28T14:50:30.108Z,95471.00
2023-03-28T14:54:30.221Z,95472.00
2023-03-28T14:58:30.361Z,95469.00
2023-03-28T15:02:30.843Z,95471.00
2023-03-28T15:06:30.757Z,95467.00
2023-03-28T15:10:30.990Z,95469.00
2023-03-28T15:14:31.163Z,95467.00
2023-03-28T15:18:31.362Z,95469.00
2023-03-28T15:22:31.562Z,95469.00
2023-03-28T15:26:31.777Z,95467.00
2023-03-28T15:30:31.998Z,95467.00
2023-03-28T15:34:32.223Z,95467.00
2023-03-28T15:38:32.400Z,95467.00
2023-03-28T15:42:33.207Z,95463.00
2023-03-28T15:46:32.929Z,95465.00
2023-03-28T15:50:33.090Z,95467.00
2023-03-28T15:54:33.036Z,95463.00
2023-03-28T15:58:33.056Z,95471.00
2023-03-28T16:02:33.053Z,95467.00
2023-03-28T16:06:35.041Z,95465.00
2023-03-28T16:10:32.878Z,95474.00
2023-03-28T16:14:32.851Z,95471.00
2023-03-28T16:18:32.882Z,95472.00
2023-03-28T16:22:32.797Z,95474.00
2023-03-28T16:26:32.819Z,95472.00
2023-03-28T16:30:32.705Z,95472.00
2023-03-28T16:34:32.659Z,95472.00
2023-03-28T16:38:32.671Z,95474.00
2023-03-28T16:42:32.614Z,95478.00
2023-03-28T16:46:32.663Z,95482.00
2023-03-28T16:50:32.572Z,95486.00
2023-03-28T16:54:32.563Z,95486.00
2023-03-28T16:58:32.729Z,95490.00
2023-03-28T17:02:32.548Z,95488.00
2023-03-28T17:06:32.727Z,95486.00
2023-03-28T17:10:32.421Z,95488.00
2023-03-28T17:14:32.339Z,95490.00
2023-03-28T17:18:32.823Z,95492.00
2023-03-28T17:22:32.293Z,95494.00
2023-03-28T17:26:32.271Z,95506.00
2023-03-28T17:30:32.262Z,95506.00
2023-03-28T17:34:32.215Z,95504.00
2023-03-28T17:38:32.263Z,95506.00
2023-03-28T17:42:32.163Z,95508.00
2023-03-28T17:46:32.124Z,95504.00
2023-03-28T17:50:32.017Z,95508.00
2023-03-28T17:54:32.038Z,95512.00
2023-03-28T17:58:32.289Z,95518.00
2023-03-28T18:02:31.999Z,95525.00
2023-03-28T18:06:31.929Z,95523.00
2023-03-28T18:10:31.811Z,95525.00
2023-03-28T18:14:31.860Z,95531.00
2023-03-28T18:18:31.798Z,95529.00
2023-03-28T18:22:31.753Z,95533.00
2023-03-28T18:26:31.767Z,95533.00
2023-03-28T18:30:31.867Z,95539.00
2023-03-28T18:34:32.011Z,95543.00
2023-03-28T18:38:33.735Z,95543.00
2023-03-28T18:42:31.972Z,95543.00
2023-03-28T18:46:32.001Z,95539.00
2023-03-28T18:50:32.033Z,95539.00
2023-03-28T18:54:31.917Z,95535.00
2023-03-28T18:58:31.878Z,95537.00
2023-03-28T19:02:31.944Z,95543.00
2023-03-28T19:06:31.745Z,95545.00
2023-03-28T19:10:31.732Z,95547.00
2023-03-28T19:14:31.710Z,95541.00
2023-03-28T19:18:31.690Z,95541.00
2023-03-28T19:22:31.630Z,95537.00
2023-03-28T19:26:31.662Z,95539.00
2023-03-28T19:30:31.627Z,95541.00
2023-03-28T19:34:31.543Z,95541.00
2023-03-28T19:38:31.505Z,95539.00
2023-03-28T19:42:31.685Z,95539.00
2023-03-28T19:46:33.187Z,95539.00
2023-03-28T19:50:31.691Z,95535.00
2023-03-28T19:54:31.628Z,95539.00
2023-03-28T19:58:31.613Z,95543.00
2023-03-28T20:02:31.598Z,95539.00
2023-03-28T20:06:31.526Z,95539.00
2023-03-28T20:10:31.635Z,95531.00
2023-03-28T20:14:31.459Z,95531.00
2023-03-28T20:18:31.391Z,95527.00
2023-03-28T20:22:31.397Z,95523.00
2023-03-28T20:26:31.325Z,95525.00
2023-03-28T20:30:31.306Z,95522.00
2023-03-28T20:34:31.246Z,95522.00
2023-03-28T20:38:31.254Z,95522.00
2023-03-28T20:42:31.447Z,95523.00
2023-03-28T20:46:31.590Z,95523.00
2023-03-28T20:50:31.803Z,95518.00
2023-03-28T20:54:32.029Z,95522.00
2023-03-28T20:58:32.210Z,95520.00
2023-03-28T21:02:32.477Z,95506.00
2023-03-28T21:06:33.462Z,95506.00
2023-03-28T21:10:32.863Z,95516.00
2023-03-28T21:14:32.806Z,95522.00
2023-03-28T21:18:32.844Z,95520.00
2023-03-28T21:22:32.752Z,95522.00
2023-03-28T21:26:32.753Z,95525.00
2023-03-28T21:30:32.684Z,95527.00
2023-03-28T21:34:32.616Z,95531.00
2023-03-28T21:38:32.586Z,95522.00
2023-03-28T21:42:32.605Z,95516.00
2023-03-28T21:46:32.973Z,95514.00
2023-03-28T21:50:32.541Z,95508.00
2023-03-28T21:54:32.485Z,95504.00
2023-03-28T21:58:32.473Z,95514.00
2023-03-28T22:02:32.505Z,95512.00
2023-03-28T22:06:32.377Z,95514.00
2023-03-28T22:10:32.361Z,95520.00
2023-03-28T22:14:32.374Z,95514.00
2023-03-28T22:18:32.253Z,95514.00
2023-03-28T22:22:32.180Z,95500.00
2023-03-28T22:26:32.230Z,95486.00
2023-03-28T22:30:32.317Z,95478.00
2023-03-28T22:34:32.520Z,95472.00
2023-03-28T22:38:32.809Z,95467.00
2023-03-28T22:42:32.938Z,95465.00
2023-03-28T22:46:33.218Z,95457.00
2023-03-28T22:50:33.148Z,95449.00
2023-03-28T22:54:33.075Z,95441.00
2023-03-28T22:58:33.043Z,95443.00
2023-03-28T23:02:33.076Z,95435.00
2023-03-28T23:06:32.991Z,95441.00
2023-03-28T23:10:32.919Z,95425.00
2023-03-28T23:14:32.896Z,95431.00
2023-03-28T23:18:32.867Z,95408.00
2023-03-28T23:22:32.852Z,95420.00
2023-03-28T23:26:32.864Z,95423.00
2023-03-28T23:30:32.768Z,95425.00
2023-03-28T23:34:32.742Z,95431.00
2023-03-28T23:38:32.701Z,95427.00
2023-03-28T23:42:32.681Z,95429.00
2023-03-28T23:46:32.653Z,95427.00
2023-03-28T23:50:32.581Z,95421.00
2023-03-28T23:54:32.632Z,95421.00
2023-03-28T23:58:32.722Z,95421.00
